createdAt,value
2023-12-07T00:00:41.184Z,74.80
2023-12-07T00:03:08.272Z,74.89
2023-12-07T00:05:35.179Z,75.14
2023-12-07T00:08:01.916Z,75.27
2023-12-07T00:10:28.607Z,75.49
2023-12-07T00:12:55.279Z,75.70
2023-12-07T00:15:22.136Z,75.71
2023-12-07T00:17:49.308Z,75.82
2023-12-07T00:20:16.482Z,76.06
2023-12-07T00:22:43.253Z,76.24
2023-12-07T00:25:10.006Z,76.43
2023-12-07T00:27:36.800Z,76.59
2023-12-07T00:30:04.560Z,76.75
2023-12-07T00:32:31.328Z,76.94
2023-12-07T00:34:57.967Z,77.19
2023-12-07T00:37:25.108Z,77.35
2023-12-07T00:39:51.859Z,77.49
2023-12-07T00:42:18.684Z,77.63
2023-12-07T00:44:45.253Z,77.70
2023-12-07T00:47:11.906Z,77.79
2023-12-07T00:49:42.965Z,78.02
2023-12-07T00:52:10.366Z,78.11
2023-12-07T00:54:37.183Z,78.12
2023-12-07T00:57:04.074Z,78.15
2023-12-07T00:59:34.807Z,78.20
2023-12-07T01:02:07.975Z,78.32
2023-12-07T01:04:35.253Z,78.27
2023-12-07T01:07:02.336Z,78.43
2023-12-07T01:09:29.052Z,78.62
2023-12-07T01:11:56.304Z,78.80
2023-12-07T01:14:22.963Z,78.76
2023-12-07T01:16:49.583Z,78.76
2023-12-07T01:19:16.379Z,78.86
2023-12-07T01:21:43.539Z,78.98
2023-12-07T01:24:15.723Z,78.97
2023-12-07T01:26:44.342Z,78.97
2023-12-07T01:29:11.077Z,79.00
2023-12-07T01:31:37.904Z,79.00
2023-12-07T01:34:04.874Z,79.11
2023-12-07T01:36:31.555Z,79.19
2023-12-07T01:38:59.774Z,79.14
2023-12-07T01:41:26.348Z,79.19
2023-12-07T01:43:52.967Z,79.24
2023-12-07T01:46:19.881Z,79.34
2023-12-07T01:48:50.359Z,79.41
2023-12-07T01:51:19.515Z,79.55
2023-12-07T01:53:46.744Z,79.52
2023-12-07T01:56:13.756Z,79.54
2023-12-07T01:58:40.488Z,79.55
2023-12-07T02:01:07.433Z,79.64
2023-12-07T02:03:34.381Z,79.70
2023-12-07T02:06:02.546Z,79.69
2023-12-07T02:08:29.266Z,79.84
2023-12-07T02:10:56.391Z,79.88
2023-12-07T02:13:23.303Z,79.80
2023-12-07T02:15:51.783Z,79.79
2023-12-07T02:18:39.965Z,79.70
2023-12-07T02:21:26.394Z,79.72
2023-12-07T02:23:56.192Z,79.60
2023-12-07T02:26:33.394Z,79.51
2023-12-07T02:29:00.000Z,79.32
2023-12-07T02:31:26.770Z,79.23
2023-12-07T02:33:53.555Z,79.20
2023-12-07T02:36:23.684Z,79.10
2023-12-07T02:38:52.298Z,79.23
2023-12-07T02:41:21.550Z,79.30
2023-12-07T02:43:48.315Z,79.42
2023-12-07T02:46:15.037Z,79.40
2023-12-07T02:48:41.677Z,79.46
2023-12-07T02:51:08.295Z,79.53
2023-12-07T02:53:35.508Z,79.54
2023-12-07T02:56:02.115Z,79.52
2023-12-07T02:58:28.959Z,79.49
2023-12-07T03:00:55.731Z,79.44
2023-12-07T03:03:22.629Z,79.40
2023-12-07T03:05:49.402Z,79.47
2023-12-07T03:08:16.899Z,79.50
2023-12-07T03:10:43.586Z,79.44
2023-12-07T03:13:10.331Z,79.34
2023-12-07T03:15:37.072Z,79.20
2023-12-07T03:18:03.843Z,79.13
2023-12-07T03:20:30.790Z,79.13
2023-12-07T03:22:57.514Z,79.03
2023-12-07T03:25:24.985Z,78.95
2023-12-07T03:27:51.682Z,78.89
2023-12-07T03:30:18.700Z,78.85
2023-12-07T03:32:45.475Z,78.79
2023-12-07T03:35:12.526Z,78.71
2023-12-07T03:37:39.310Z,78.62
2023-12-07T03:40:07.040Z,78.56
2023-12-07T03:42:50.454Z,78.28
2023-12-07T03:45:20.341Z,78.20
2023-12-07T03:47:47.095Z,78.10
2023-12-07T03:50:13.847Z,78.13
2023-12-07T03:52:40.672Z,78.01
2023-12-07T03:55:08.095Z,77.89
2023-12-07T03:57:34.729Z,77.78
2023-12-07T04:00:01.352Z,77.78
2023-12-07T04:02:28.062Z,77.70
2023-12-07T04:04:54.664Z,77.69
2023-12-07T04:07:21.242Z,77.59
2023-12-07T04:09:47.920Z,77.50
2023-12-07T04:12:14.625Z,77.50
2023-12-07T04:14:41.427Z,77.44
2023-12-07T04:17:08.475Z,77.42
2023-12-07T04:19:35.313Z,77.44
2023-12-07T04:22:02.169Z,77.45
2023-12-07T04:24:28.820Z,77.34
2023-12-07T04:26:56.335Z,77.38
2023-12-07T04:29:23.049Z,77.46
2023-12-07T04:31:49.662Z,77.47
2023-12-07T04:34:16.775Z,77.50
2023-12-07T04:36:43.473Z,77.61
2023-12-07T04:39:10.073Z,77.59
2023-12-07T04:41:36.674Z,77.58
2023-12-07T04:44:03.518Z,77.59
2023-12-07T04:46:30.195Z,77.69
2023-12-07T04:48:56.912Z,77.69
2023-12-07T04:51:23.692Z,77.76
2023-12-07T04:53:50.438Z,77.71
2023-12-07T04:56:17.114Z,77.59
2023-12-07T04:58:43.842Z,77.54
2023-12-07T05:01:10.584Z,77.36
2023-12-07T05:03:37.280Z,77.23
2023-12-07T05:06:04.290Z,77.18
2023-12-07T05:08:30.968Z,77.13
2023-12-07T05:10:57.641Z,77.10
2023-12-07T05:13:24.335Z,77.10
2023-12-07T05:15:51.144Z,77.10
2023-12-07T05:18:17.802Z,77.14
2023-12-07T05:20:44.834Z,77.26
2023-12-07T05:23:11.510Z,77.28
2023-12-07T05:25:38.218Z,77.36
2023-12-07T05:28:05.842Z,77.49
2023-12-07T05:30:32.582Z,77.51
2023-12-07T05:32:59.357Z,77.43
2023-12-07T05:35:26.080Z,77.34
2023-12-07T05:37:52.753Z,77.17
2023-12-07T05:40:19.935Z,76.99
2023-12-07T05:42:50.521Z,76.94
2023-12-07T05:45:17.193Z,77.06
2023-12-07T05:47:43.966Z,77.10
2023-12-07T05:50:10.946Z,77.10
2023-12-07T05:52:37.617Z,77.07
2023-12-07T05:55:05.847Z,77.08
2023-12-07T05:57:32.608Z,77.09
2023-12-07T05:59:59.871Z,77.01
2023-12-07T06:02:26.951Z,77.05
2023-12-07T06:04:54.829Z,77.02
2023-12-07T06:07:21.634Z,77.04
2023-12-07T06:09:48.308Z,77.15
2023-12-07T06:12:14.893Z,77.07
2023-12-07T06:14:41.491Z,77.00
2023-12-07T06:17:09.290Z,76.96
2023-12-07T06:19:35.954Z,77.00
2023-12-07T06:22:02.758Z,76.89
2023-12-07T06:24:29.857Z,76.92
2023-12-07T06:26:56.519Z,77.00
2023-12-07T06:29:24.033Z,77.01
2023-12-07T06:31:51.945Z,77.05
2023-12-07T06:34:18.772Z,77.17
2023-12-07T06:36:45.554Z,77.20
2023-12-07T06:39:12.253Z,77.22
2023-12-07T06:41:38.900Z,77.30
2023-12-07T06:44:06.225Z,77.30
2023-12-07T06:46:32.901Z,77.30
2023-12-07T06:48:59.667Z,77.25
2023-12-07T06:51:26.280Z,77.24
2023-12-07T06:53:53.445Z,77.34
2023-12-07T06:56:20.092Z,77.44
2023-12-07T06:58:46.835Z,77.56
2023-12-07T07:01:14.947Z,77.60
2023-12-07T07:03:41.734Z,77.59
2023-12-07T07:06:08.931Z,77.55
2023-12-07T07:08:35.759Z,77.50
2023-12-07T07:11:02.321Z,77.50
2023-12-07T07:13:29.038Z,77.54
2023-12-07T07:15:56.125Z,77.59
2023-12-07T07:18:25.372Z,77.59
2023-12-07T07:20:52.203Z,77.58
2023-12-07T07:23:18.855Z,77.54
2023-12-07T07:25:45.621Z,77.50
2023-12-07T07:28:12.803Z,77.46
2023-12-07T07:30:39.660Z,77.42
2023-12-07T07:33:07.371Z,77.44
2023-12-07T07:35:34.082Z,77.41
2023-12-07T07:38:00.706Z,77.37
2023-12-07T07:40:27.499Z,77.29
2023-12-07T07:42:54.205Z,77.27
2023-12-07T07:45:20.978Z,77.21
2023-12-07T07:47:47.653Z,77.11
2023-12-07T07:50:15.165Z,77.06
2023-12-07T07:52:42.215Z,77.00
2023-12-07T07:55:11.517Z,77.00
2023-12-07T07:57:38.308Z,76.92
2023-12-07T08:00:09.728Z,76.88
2023-12-07T08:02:37.539Z,76.75
2023-12-07T08:05:04.754Z,76.65
2023-12-07T08:07:31.493Z,76.54
2023-12-07T08:09:58.197Z,76.40
2023-12-07T08:12:24.909Z,76.34
2023-12-07T08:14:51.774Z,76.30
2023-12-07T08:17:20.638Z,76.29
2023-12-07T08:19:47.685Z,76.20
2023-12-07T08:22:14.648Z,76.00
2023-12-07T08:24:41.571Z,75.77
2023-12-07T08:27:08.239Z,75.57
2023-12-07T08:29:35.753Z,75.43
2023-12-07T08:32:02.522Z,75.19
2023-12-07T08:34:30.566Z,74.90
2023-12-07T08:36:57.430Z,74.57
2023-12-07T08:39:24.282Z,74.38
2023-12-07T08:41:50.952Z,73.94
2023-12-07T08:44:17.636Z,73.57
2023-12-07T08:46:46.362Z,73.23
2023-12-07T08:49:13.410Z,72.57
2023-12-07T08:51:45.897Z,72.17
2023-12-07T08:54:15.921Z,71.97
2023-12-07T08:56:46.481Z,71.38
2023-12-07T08:59:13.217Z,71.05
2023-12-07T09:01:40.031Z,70.64
2023-12-07T09:04:06.866Z,70.52
2023-12-07T09:06:33.800Z,70.48
2023-12-07T09:09:00.533Z,69.88
2023-12-07T09:11:28.932Z,69.37
2023-12-07T09:13:55.639Z,69.07
2023-12-07T09:16:22.704Z,68.49
2023-12-07T09:18:51.623Z,67.88
2023-12-07T09:21:18.418Z,67.80
2023-12-07T09:23:45.824Z,67.97
2023-12-07T09:26:12.548Z,66.61
2023-12-07T09:28:40.978Z,65.34
2023-12-07T09:31:09.082Z,65.70
2023-12-07T09:33:35.937Z,64.46
2023-12-07T09:36:09.217Z,62.71
2023-12-07T09:38:39.168Z,61.03
2023-12-07T09:41:06.046Z,60.50
2023-12-07T09:43:32.860Z,58.36
2023-12-07T09:45:59.497Z,56.60
2023-12-07T09:48:27.002Z,54.55
2023-12-07T09:50:57.044Z,54.32
2023-12-07T09:53:23.883Z,53.52
2023-12-07T09:55:50.625Z,52.47
2023-12-07T09:58:22.858Z,51.99
2023-12-07T10:00:57.058Z,47.84
2023-12-07T10:03:25.123Z,47.15
2023-12-07T10:06:01.488Z,47.33
2023-12-07T10:08:38.603Z,45.70
2023-12-07T10:11:14.327Z,45.46
2023-12-07T10:13:42.995Z,45.08
2023-12-07T10:16:16.614Z,44.91
2023-12-07T10:18:44.900Z,43.69
2023-12-07T10:21:13.634Z,43.04
2023-12-07T10:23:45.378Z,42.67
2023-12-07T10:26:12.376Z,41.39
2023-12-07T10:28:40.793Z,42.03
2023-12-07T10:31:11.508Z,41.93
2023-12-07T10:33:38.777Z,42.19
2023-12-07T10:36:07.698Z,42.97
2023-12-07T10:38:34.679Z,43.58
2023-12-07T10:41:10.811Z,42.20
2023-12-07T10:43:47.695Z,42.08
2023-12-07T10:46:19.801Z,41.83
2023-12-07T10:48:50.134Z,42.46
2023-12-07T10:51:46.635Z,42.89
2023-12-07T10:54:18.309Z,43.64
2023-12-07T10:56:47.158Z,43.29
2023-12-07T10:59:23.889Z,42.30
2023-12-07T11:01:58.566Z,43.37
2023-12-07T11:04:26.995Z,42.41
2023-12-07T11:06:58.382Z,42.99
2023-12-07T11:09:34.729Z,43.30
2023-12-07T11:12:35.500Z,42.91
2023-12-07T11:15:03.729Z,42.69
2023-12-07T11:17:30.626Z,42.56
2023-12-07T11:19:58.873Z,42.81
2023-12-07T11:22:27.313Z,43.86
2023-12-07T11:25:02.624Z,43.94
2023-12-07T11:27:33.930Z,43.85
2023-12-07T11:30:02.404Z,43.08
2023-12-07T11:32:30.543Z,43.66
2023-12-07T11:35:05.920Z,43.65
2023-12-07T11:38:20.337Z,43.07
2023-12-07T11:40:47.688Z,42.62
2023-12-07T11:43:45.033Z,42.68
2023-12-07T11:46:15.592Z,41.78
2023-12-07T11:48:49.021Z,40.45
2023-12-07T11:51:17.494Z,41.04
2023-12-07T11:53:44.349Z,41.17
2023-12-07T11:56:13.808Z,41.59
2023-12-07T11:58:41.732Z,40.62
2023-12-07T12:01:10.670Z,40.12
2023-12-07T12:03:38.372Z,39.87
2023-12-07T12:06:07.494Z,41.61
2023-12-07T12:08:35.431Z,40.78
2023-12-07T12:11:02.582Z,41.00
2023-12-07T12:13:36.077Z,40.97
2023-12-07T12:16:06.667Z,42.11
2023-12-07T12:18:35.841Z,42.95
2023-12-07T12:21:03.070Z,42.54
2023-12-07T12:23:30.685Z,42.80
2023-12-07T12:25:58.426Z,43.32
2023-12-07T12:28:25.855Z,43.33
2023-12-07T12:30:53.867Z,43.04
2023-12-07T12:33:20.983Z,43.20
2023-12-07T12:35:47.924Z,43.39
2023-12-07T12:38:23.876Z,43.90
2023-12-07T12:40:55.709Z,42.79
2023-12-07T12:43:24.053Z,42.61
2023-12-07T12:46:04.751Z,42.82
2023-12-07T12:48:34.364Z,43.13
2023-12-07T12:51:10.202Z,43.30
2023-12-07T12:53:37.387Z,43.73
2023-12-07T12:56:04.961Z,43.09
2023-12-07T12:58:31.892Z,42.95
2023-12-07T13:00:59.159Z,42.93
2023-12-07T13:03:26.156Z,42.81
2023-12-07T13:05:54.883Z,42.58
2023-12-07T13:08:22.465Z,42.81
2023-12-07T13:10:49.154Z,43.42
2023-12-07T13:13:16.046Z,43.79
2023-12-07T13:15:43.586Z,43.63
2023-12-07T13:18:10.288Z,43.58
2023-12-07T13:23:07.579Z,44.53
2023-12-07T13:25:34.343Z,44.57
2023-12-07T13:28:01.060Z,44.78
2023-12-07T13:30:30.825Z,45.12
2023-12-07T13:32:57.686Z,45.68
2023-12-07T13:35:24.733Z,46.26
2023-12-07T13:37:51.711Z,46.77
2023-12-07T13:40:18.487Z,47.46
2023-12-07T13:42:45.330Z,46.64
2023-12-07T13:45:12.609Z,46.45
2023-12-07T13:47:39.452Z,46.47
2023-12-07T13:50:07.992Z,47.01
2023-12-07T13:52:34.837Z,46.99
2023-12-07T13:55:03.301Z,46.71
2023-12-07T13:57:30.343Z,46.92
2023-12-07T13:59:58.168Z,46.98
2023-12-07T14:02:25.171Z,47.41
2023-12-07T14:04:52.129Z,48.28
2023-12-07T14:07:22.407Z,47.51
2023-12-07T14:09:57.870Z,47.34
2023-12-07T14:12:29.945Z,47.54
2023-12-07T14:14:57.498Z,48.00
2023-12-07T14:19:59.877Z,48.02
2023-12-07T14:22:32.558Z,48.04
2023-12-07T14:24:59.401Z,48.37
2023-12-07T14:27:26.385Z,48.04
2023-12-07T14:29:54.345Z,48.40
2023-12-07T14:32:21.796Z,48.66
2023-12-07T14:34:49.413Z,48.76
2023-12-07T14:37:16.814Z,48.59
2023-12-07T14:39:45.404Z,48.77
2023-12-07T14:42:12.212Z,48.68
2023-12-07T14:44:39.082Z,49.14
2023-12-07T14:47:06.185Z,49.18
2023-12-07T14:49:33.061Z,49.73
2023-12-07T14:52:01.416Z,49.97
2023-12-07T14:54:30.458Z,50.24
2023-12-07T14:56:58.713Z,50.48
2023-12-07T14:59:25.950Z,50.86
2023-12-07T15:01:54.459Z,50.98
2023-12-07T15:04:28.606Z,51.19
2023-12-07T15:07:01.943Z,51.63
2023-12-07T15:09:29.956Z,51.62
2023-12-07T15:11:58.360Z,51.90
2023-12-07T15:14:33.780Z,52.06
2023-12-07T15:17:06.858Z,52.07
2023-12-07T15:19:35.600Z,52.41
2023-12-07T15:22:02.865Z,52.38
2023-12-07T15:24:35.386Z,52.66
2023-12-07T15:27:08.003Z,52.56
2023-12-07T15:29:36.437Z,52.66
2023-12-07T15:32:05.795Z,52.89
2023-12-07T15:34:38.747Z,52.97
2023-12-07T15:37:12.527Z,53.23
2023-12-07T15:39:41.111Z,53.30
2023-12-07T15:42:10.219Z,53.04
2023-12-07T15:44:37.477Z,53.07
2023-12-07T15:47:04.583Z,53.10
2023-12-07T15:49:31.380Z,53.19
2023-12-07T15:52:00.815Z,53.62
2023-12-07T15:56:59.174Z,53.91
2023-12-07T15:59:26.190Z,54.30
2023-12-07T16:01:52.958Z,54.59
2023-12-07T16:04:28.788Z,54.49
2023-12-07T16:07:00.025Z,54.73
2023-12-07T16:09:26.753Z,54.98
2023-12-07T16:11:53.506Z,55.33
2023-12-07T16:14:26.883Z,55.78
2023-12-07T16:16:58.115Z,56.51
2023-12-07T16:19:25.198Z,57.13
2023-12-07T16:21:52.412Z,57.53
2023-12-07T16:24:19.591Z,57.61
2023-12-07T16:26:46.297Z,57.86
2023-12-07T16:29:13.247Z,57.89
2023-12-07T16:31:40.035Z,57.98
2023-12-07T16:34:07.177Z,58.16
2023-12-07T16:36:34.247Z,58.14
2023-12-07T16:39:04.335Z,58.10
2023-12-07T16:41:38.578Z,58.27
2023-12-07T16:44:14.408Z,58.27
2023-12-07T16:46:44.297Z,58.36
2023-12-07T16:49:11.997Z,58.59
2023-12-07T16:51:40.460Z,58.70
2023-12-07T16:54:07.995Z,58.85
2023-12-07T16:56:34.977Z,59.23
2023-12-07T16:59:01.753Z,59.38
2023-12-07T17:01:28.509Z,59.57
2023-12-07T17:03:55.851Z,59.72
2023-12-07T17:06:22.871Z,60.05
2023-12-07T17:09:03.544Z,60.29
2023-12-07T17:11:38.996Z,60.52
2023-12-07T17:14:05.909Z,60.81
2023-12-07T17:16:32.569Z,61.09
2023-12-07T17:18:59.930Z,61.38
2023-12-07T17:21:29.180Z,61.63
2023-12-07T17:23:57.148Z,61.84
2023-12-07T17:26:23.917Z,62.04
2023-12-07T17:28:50.651Z,62.18
2023-12-07T17:31:18.959Z,62.48
2023-12-07T17:33:47.340Z,63.00
2023-12-07T17:36:16.145Z,63.00
2023-12-07T17:38:42.839Z,63.12
2023-12-07T17:41:13.921Z,63.30
2023-12-07T17:43:40.673Z,63.70
2023-12-07T17:46:08.560Z,63.91
2023-12-07T17:48:36.645Z,64.11
2023-12-07T17:51:04.641Z,64.36
2023-12-07T17:53:31.661Z,64.71
2023-12-07T17:55:58.692Z,64.99
2023-12-07T17:58:25.714Z,65.36
2023-12-07T18:00:52.367Z,65.70
2023-12-07T18:03:19.270Z,65.92
2023-12-07T18:05:47.189Z,66.12
2023-12-07T18:08:13.953Z,66.27
2023-12-07T18:10:40.512Z,66.41
2023-12-07T18:13:09.945Z,66.78
2023-12-07T18:15:36.575Z,67.04
2023-12-07T18:18:03.579Z,67.11
2023-12-07T18:20:31.813Z,67.20
2023-12-07T18:22:58.854Z,67.25
2023-12-07T18:25:25.614Z,67.67
2023-12-07T18:27:52.231Z,67.76
2023-12-07T18:30:18.912Z,67.68
2023-12-07T18:32:50.394Z,67.72
2023-12-07T18:35:17.178Z,67.78
2023-12-07T18:37:43.887Z,67.95
2023-12-07T18:40:10.992Z,68.18
2023-12-07T18:42:38.865Z,68.17
2023-12-07T18:45:06.430Z,68.14
2023-12-07T18:47:33.280Z,68.25
2023-12-07T18:50:00.298Z,68.30
2023-12-07T18:52:27.508Z,68.33
2023-12-07T18:54:54.531Z,68.38
2023-12-07T18:57:21.174Z,68.46
2023-12-07T18:59:48.004Z,68.65
2023-12-07T19:02:14.697Z,68.71
2023-12-07T19:04:44.794Z,68.76
2023-12-07T19:07:11.621Z,69.07
2023-12-07T19:09:38.348Z,69.18
2023-12-07T19:12:05.747Z,69.45
2023-12-07T19:14:32.543Z,69.27
2023-12-07T19:16:59.250Z,69.35
2023-12-07T19:19:26.177Z,69.36
2023-12-07T19:21:53.204Z,69.44
2023-12-07T19:24:19.845Z,69.48
2023-12-07T19:26:46.577Z,69.70
2023-12-07T19:29:15.351Z,69.92
2023-12-07T19:31:42.914Z,69.90
2023-12-07T19:34:10.093Z,70.04
2023-12-07T19:36:43.982Z,70.17
2023-12-07T19:39:17.130Z,70.23
2023-12-07T19:41:45.667Z,70.37
2023-12-07T19:44:13.669Z,70.54
2023-12-07T19:46:41.090Z,70.69
2023-12-07T19:49:09.272Z,70.74
2023-12-07T19:51:37.015Z,70.68
2023-12-07T19:54:04.858Z,70.77
2023-12-07T19:56:34.692Z,70.99
2023-12-07T19:59:01.363Z,71.26
2023-12-07T20:01:28.363Z,71.39
2023-12-07T20:03:55.292Z,71.11
2023-12-07T20:06:33.901Z,71.07
2023-12-07T20:09:06.714Z,71.08
2023-12-07T20:11:34.101Z,71.20
2023-12-07T20:14:00.974Z,71.32
2023-12-07T20:16:27.646Z,71.40
2023-12-07T20:18:54.496Z,71.40
2023-12-07T20:21:21.242Z,71.43
2023-12-07T20:23:47.971Z,71.49
2023-12-07T20:26:17.654Z,71.50
2023-12-07T20:28:45.471Z,71.54
2023-12-07T20:31:12.234Z,71.52
2023-12-07T20:33:39.213Z,71.64
2023-12-07T20:36:07.040Z,71.82
2023-12-07T20:38:33.814Z,71.88
2023-12-07T20:41:00.646Z,71.98
2023-12-07T20:43:27.595Z,72.05
2023-12-07T20:45:54.254Z,72.44
2023-12-07T20:48:21.035Z,72.32
2023-12-07T20:53:59.348Z,72.14
2023-12-07T21:02:31.836Z,72.24
2023-12-07T21:05:00.340Z,72.28
2023-12-07T21:07:27.947Z,72.30
2023-12-07T21:09:55.911Z,72.40
2023-12-07T21:12:23.277Z,72.60
2023-12-07T21:14:50.086Z,72.60
2023-12-07T21:17:19.754Z,72.60
2023-12-07T21:19:50.233Z,72.60
2023-12-07T21:22:31.110Z,72.65
2023-12-07T21:29:41.811Z,72.77
2023-12-07T21:32:10.070Z,72.92
2023-12-07T21:34:42.501Z,73.06
2023-12-07T21:37:11.698Z,73.10
2023-12-07T23:11:56.472Z,74.30
2023-12-07T23:14:23.407Z,74.29
2023-12-07T23:16:52.745Z,74.32
2023-12-07T23:19:19.867Z,74.31
2023-12-07T23:21:46.656Z,74.34
